Terminal Aerodrome Forecast
Issued by NWS

Home | Current Version | Previous Version | Text Only | Print | Product List | Glossary On
Versions: 1 2 3 4 5 6 7 8 9 10 11 12
000
FTUS44 KLZK 050535
TAFBPK
TAF
KBPK 050535Z 0506/0606 13003KT P6SM SKC
      TEMPO 0509/0513 5SM BR
     FM051500 14006KT P6SM SCT040
     FM060000 11003KT P6SM SCT250=

USA.gov is the U.S. government's official web portal to all federal, state and local government web resources and services.